Terminal Aerodrome Forecast
Issued by NWS St Louis, MO

Home | Current Version | Previous Version | Text Only | Print | Product List | Glossary On
Versions: 1 2 3 4 5 6 7 8 9 10 11 12 13 14 15 16 17 18 19 20 21 22 23 24 25 26 27 28 29 30 31
000
FTUS43 KLSX 290900 AAA
TAFSTL
TAF AMD
KSTL 290920Z 2909/3012 23012KT P6SM SCT150 WS018/24050KT
     FM291000 26015G21KT P6SM SKC
     FM291130 29018G28KT P6SM OVC015
     FM291800 31017G26KT P6SM BKN020
     FM292100 32012G20KT P6SM SCT020=

USA.gov is the U.S. government's official web portal to all federal, state and local government web resources and services.